sensor_id;sensor_type;location;lat;lon;timestamp;P1;durP1;ratioP1;P2;durP2;ratioP2
45206;SDS011;30950;53.086;21.576;2022-12-08T00:01:29;11.85;;;7.53;;
45206;SDS011;30950;53.086;21.576;2022-12-08T00:03:58;13.38;;;8.00;;
45206;SDS011;30950;53.086;21.576;2022-12-08T00:06:40;14.38;;;8.02;;
45206;SDS011;30950;53.086;21.576;2022-12-08T00:09:34;12.48;;;7.45;;
45206;SDS011;30950;53.086;21.576;2022-12-08T00:12:14;13.18;;;8.60;;
45206;SDS011;30950;53.086;21.576;2022-12-08T00:14:43;14.90;;;8.68;;
45206;SDS011;30950;53.086;21.576;2022-12-08T00:17:13;11.23;;;8.00;;
45206;SDS011;30950;53.086;21.576;2022-12-08T00:19:41;16.80;;;8.63;;
45206;SDS011;30950;53.086;21.576;2022-12-08T00:22:10;12.43;;;7.70;;
45206;SDS011;30950;53.086;21.576;2022-12-08T00:24:38;14.00;;;8.48;;
45206;SDS011;30950;53.086;21.576;2022-12-08T00:27:07;14.68;;;8.38;;
45206;SDS011;30950;53.086;21.576;2022-12-08T00:29:36;13.43;;;8.68;;
45206;SDS011;30950;53.086;21.576;2022-12-08T00:32:04;17.65;;;9.88;;
45206;SDS011;30950;53.086;21.576;2022-12-08T00:34:32;15.10;;;8.57;;
45206;SDS011;30950;53.086;21.576;2022-12-08T00:36:59;11.73;;;8.13;;
45206;SDS011;30950;53.086;21.576;2022-12-08T00:39:27;12.95;;;8.88;;
45206;SDS011;30950;53.086;21.576;2022-12-08T00:41:54;14.18;;;9.15;;
45206;SDS011;30950;53.086;21.576;2022-12-08T00:44:41;11.98;;;7.90;;
45206;SDS011;30950;53.086;21.576;2022-12-08T00:47:10;13.95;;;7.63;;
45206;SDS011;30950;53.086;21.576;2022-12-08T00:49:38;13.40;;;8.60;;
45206;SDS011;30950;53.086;21.576;2022-12-08T00:52:05;12.85;;;8.55;;
45206;SDS011;30950;53.086;21.576;2022-12-08T00:54:33;14.65;;;8.07;;
45206;SDS011;30950;53.086;21.576;2022-12-08T00:57:01;12.55;;;8.63;;
45206;SDS011;30950;53.086;21.576;2022-12-08T00:59:28;12.55;;;8.23;;
45206;SDS011;30950;53.086;21.576;2022-12-08T01:01:55;11.98;;;8.27;;
45206;SDS011;30950;53.086;21.576;2022-12-08T01:04:24;11.82;;;7.72;;
45206;SDS011;30950;53.086;21.576;2022-12-08T01:06:51;13.57;;;8.60;;
45206;SDS011;30950;53.086;21.576;2022-12-08T01:09:18;13.02;;;8.20;;
45206;SDS011;30950;53.086;21.576;2022-12-08T01:11:47;12.05;;;7.95;;
45206;SDS011;30950;53.086;21.576;2022-12-08T01:14:15;13.88;;;8.23;;
45206;SDS011;30950;53.086;21.576;2022-12-08T01:16:42;12.40;;;8.50;;
45206;SDS011;30950;53.086;21.576;2022-12-08T01:19:10;14.02;;;7.95;;
45206;SDS011;30950;53.086;21.576;2022-12-08T01:21:40;11.70;;;7.93;;
45206;SDS011;30950;53.086;21.576;2022-12-08T01:24:11;13.30;;;8.88;;
45206;SDS011;30950;53.086;21.576;2022-12-08T01:26:40;16.88;;;8.65;;
45206;SDS011;30950;53.086;21.576;2022-12-08T01:29:07;11.32;;;7.90;;
45206;SDS011;30950;53.086;21.576;2022-12-08T01:31:35;12.07;;;8.52;;
45206;SDS011;30950;53.086;21.576;2022-12-08T01:34:03;13.88;;;8.35;;
45206;SDS011;30950;53.086;21.576;2022-12-08T01:36:31;12.95;;;8.80;;
45206;SDS011;30950;53.086;21.576;2022-12-08T01:39:03;12.55;;;7.78;;
45206;SDS011;30950;53.086;21.576;2022-12-08T01:41:34;13.70;;;8.52;;
45206;SDS011;30950;53.086;21.576;2022-12-08T01:46:34;12.75;;;8.32;;
45206;SDS011;30950;53.086;21.576;2022-12-08T01:49:05;12.07;;;8.23;;
45206;SDS011;30950;53.086;21.576;2022-12-08T01:51:37;12.48;;;8.18;;
45206;SDS011;30950;53.086;21.576;2022-12-08T01:54:14;14.38;;;8.88;;
45206;SDS011;30950;53.086;21.576;2022-12-08T01:56:48;11.38;;;7.80;;
45206;SDS011;30950;53.086;21.576;2022-12-08T01:59:18;10.30;;;7.60;;
45206;SDS011;30950;53.086;21.576;2022-12-08T02:01:50;11.80;;;8.48;;
45206;SDS011;30950;53.086;21.576;2022-12-08T02:04:17;11.48;;;8.82;;
45206;SDS011;30950;53.086;21.576;2022-12-08T02:06:45;11.23;;;8.35;;
45206;SDS011;30950;53.086;21.576;2022-12-08T02:09:14;14.88;;;9.00;;
45206;SDS011;30950;53.086;21.576;2022-12-08T02:11:42;14.70;;;9.25;;
45206;SDS011;30950;53.086;21.576;2022-12-08T02:14:11;13.05;;;8.98;;
45206;SDS011;30950;53.086;21.576;2022-12-08T02:16:56;13.93;;;9.63;;
45206;SDS011;30950;53.086;21.576;2022-12-08T02:25:23;12.68;;;8.68;;
45206;SDS011;30950;53.086;21.576;2022-12-08T02:30:45;15.40;;;8.82;;
45206;SDS011;30950;53.086;21.576;2022-12-08T02:36:22;12.35;;;8.90;;
45206;SDS011;30950;53.086;21.576;2022-12-08T02:41:52;13.02;;;8.70;;
45206;SDS011;30950;53.086;21.576;2022-12-08T02:44:27;14.48;;;8.80;;
45206;SDS011;30950;53.086;21.576;2022-12-08T02:47:21;13.63;;;8.98;;
45206;SDS011;30950;53.086;21.576;2022-12-08T02:49:50;11.82;;;8.35;;
45206;SDS011;30950;53.086;21.576;2022-12-08T02:54:46;11.65;;;8.93;;
45206;SDS011;30950;53.086;21.576;2022-12-08T03:00:15;11.70;;;9.15;;
45206;SDS011;30950;53.086;21.576;2022-12-08T03:08:21;17.92;;;8.32;;
45206;SDS011;30950;53.086;21.576;2022-12-08T03:13:41;11.15;;;8.15;;
45206;SDS011;30950;53.086;21.576;2022-12-08T03:16:13;12.80;;;7.55;;
45206;SDS011;30950;53.086;21.576;2022-12-08T03:18:44;12.73;;;9.07;;
45206;SDS011;30950;53.086;21.576;2022-12-08T03:21:16;10.13;;;6.95;;
45206;SDS011;30950;53.086;21.576;2022-12-08T03:23:46;14.30;;;7.95;;
45206;SDS011;30950;53.086;21.576;2022-12-08T03:26:20;12.45;;;8.63;;
45206;SDS011;30950;53.086;21.576;2022-12-08T03:29:15;14.82;;;9.43;;
45206;SDS011;30950;53.086;21.576;2022-12-08T03:31:44;12.52;;;8.07;;
45206;SDS011;30950;53.086;21.576;2022-12-08T03:34:17;12.60;;;8.18;;
45206;SDS011;30950;53.086;21.576;2022-12-08T03:36:45;13.63;;;8.57;;
45206;SDS011;30950;53.086;21.576;2022-12-08T03:39:12;11.63;;;8.30;;
45206;SDS011;30950;53.086;21.576;2022-12-08T03:41:40;11.25;;;9.43;;
45206;SDS011;30950;53.086;21.576;2022-12-08T03:44:07;13.95;;;8.90;;
45206;SDS011;30950;53.086;21.576;2022-12-08T03:46:35;15.25;;;9.70;;
45206;SDS011;30950;53.086;21.576;2022-12-08T03:49:02;17.30;;;10.25;;
45206;SDS011;30950;53.086;21.576;2022-12-08T03:51:32;14.25;;;9.43;;
45206;SDS011;30950;53.086;21.576;2022-12-08T03:53:59;15.85;;;8.95;;
45206;SDS011;30950;53.086;21.576;2022-12-08T03:58:56;16.42;;;10.10;;
45206;SDS011;30950;53.086;21.576;2022-12-08T04:01:24;19.63;;;10.00;;
45206;SDS011;30950;53.086;21.576;2022-12-08T04:03:53;16.85;;;10.05;;
45206;SDS011;30950;53.086;21.576;2022-12-08T04:06:20;14.70;;;9.10;;
45206;SDS011;30950;53.086;21.576;2022-12-08T04:08:48;13.85;;;8.95;;
45206;SDS011;30950;53.086;21.576;2022-12-08T04:11:17;15.70;;;9.30;;
45206;SDS011;30950;53.086;21.576;2022-12-08T04:13:44;15.15;;;9.73;;
45206;SDS011;30950;53.086;21.576;2022-12-08T04:16:16;17.52;;;10.30;;
45206;SDS011;30950;53.086;21.576;2022-12-08T04:18:46;14.00;;;9.85;;
45206;SDS011;30950;53.086;21.576;2022-12-08T04:21:16;19.30;;;10.88;;
45206;SDS011;30950;53.086;21.576;2022-12-08T04:23:43;13.98;;;10.15;;
45206;SDS011;30950;53.086;21.576;2022-12-08T04:26:12;13.80;;;8.95;;
45206;SDS011;30950;53.086;21.576;2022-12-08T04:28:39;19.08;;;9.48;;
45206;SDS011;30950;53.086;21.576;2022-12-08T04:31:07;11.00;;;7.82;;
45206;SDS011;30950;53.086;21.576;2022-12-08T04:33:34;15.57;;;9.30;;
45206;SDS011;30950;53.086;21.576;2022-12-08T04:36:03;15.65;;;8.30;;
45206;SDS011;30950;53.086;21.576;2022-12-08T04:38:31;15.27;;;8.73;;
45206;SDS011;30950;53.086;21.576;2022-12-08T04:40:59;14.00;;;8.45;;
45206;SDS011;30950;53.086;21.576;2022-12-08T04:43:26;14.48;;;8.55;;
45206;SDS011;30950;53.086;21.576;2022-12-08T04:45:54;12.95;;;8.30;;
45206;SDS011;30950;53.086;21.576;2022-12-08T04:48:21;13.35;;;8.32;;
45206;SDS011;30950;53.086;21.576;2022-12-08T04:50:49;11.80;;;8.02;;
45206;SDS011;30950;53.086;21.576;2022-12-08T04:53:17;14.20;;;8.27;;
45206;SDS011;30950;53.086;21.576;2022-12-08T04:55:45;14.82;;;8.57;;
45206;SDS011;30950;53.086;21.576;2022-12-08T04:58:15;14.00;;;7.88;;
45206;SDS011;30950;53.086;21.576;2022-12-08T05:00:45;13.68;;;8.40;;
45206;SDS011;30950;53.086;21.576;2022-12-08T05:03:13;14.30;;;8.20;;
45206;SDS011;30950;53.086;21.576;2022-12-08T05:05:41;14.63;;;8.23;;
45206;SDS011;30950;53.086;21.576;2022-12-08T05:08:09;11.00;;;7.78;;
45206;SDS011;30950;53.086;21.576;2022-12-08T05:10:36;11.73;;;7.85;;
45206;SDS011;30950;53.086;21.576;2022-12-08T05:13:04;12.75;;;7.80;;
45206;SDS011;30950;53.086;21.576;2022-12-08T05:15:34;11.82;;;7.25;;
45206;SDS011;30950;53.086;21.576;2022-12-08T05:18:03;13.05;;;8.27;;
45206;SDS011;30950;53.086;21.576;2022-12-08T05:20:32;13.55;;;8.00;;
45206;SDS011;30950;53.086;21.576;2022-12-08T05:22:59;15.43;;;8.68;;
45206;SDS011;30950;53.086;21.576;2022-12-08T05:25:27;12.48;;;7.75;;
45206;SDS011;30950;53.086;21.576;2022-12-08T05:27:54;12.02;;;8.15;;
45206;SDS011;30950;53.086;21.576;2022-12-08T05:33:09;12.52;;;7.93;;
45206;SDS011;30950;53.086;21.576;2022-12-08T05:35:36;13.88;;;8.10;;
45206;SDS011;30950;53.086;21.576;2022-12-08T05:38:04;16.30;;;8.23;;
45206;SDS011;30950;53.086;21.576;2022-12-08T05:40:31;12.93;;;7.53;;
45206;SDS011;30950;53.086;21.576;2022-12-08T05:42:58;15.05;;;9.02;;
45206;SDS011;30950;53.086;21.576;2022-12-08T05:45:26;11.45;;;7.13;;
45206;SDS011;30950;53.086;21.576;2022-12-08T05:47:53;9.98;;;7.18;;
45206;SDS011;30950;53.086;21.576;2022-12-08T05:50:20;11.95;;;7.50;;
45206;SDS011;30950;53.086;21.576;2022-12-08T05:52:48;9.73;;;6.78;;
45206;SDS011;30950;53.086;21.576;2022-12-08T05:55:15;12.30;;;7.47;;
45206;SDS011;30950;53.086;21.576;2022-12-08T05:57:42;12.32;;;7.55;;
45206;SDS011;30950;53.086;21.576;2022-12-08T06:00:10;12.35;;;7.43;;
45206;SDS011;30950;53.086;21.576;2022-12-08T06:02:38;17.60;;;8.68;;
45206;SDS011;30950;53.086;21.576;2022-12-08T06:05:05;18.90;;;11.43;;
45206;SDS011;30950;53.086;21.576;2022-12-08T06:07:33;15.52;;;10.80;;
45206;SDS011;30950;53.086;21.576;2022-12-08T06:10:00;14.25;;;8.82;;
45206;SDS011;30950;53.086;21.576;2022-12-08T06:12:28;13.25;;;8.52;;
45206;SDS011;30950;53.086;21.576;2022-12-08T06:14:56;10.63;;;8.15;;
45206;SDS011;30950;53.086;21.576;2022-12-08T06:17:23;12.48;;;7.68;;
45206;SDS011;30950;53.086;21.576;2022-12-08T06:19:50;10.20;;;7.20;;
45206;SDS011;30950;53.086;21.576;2022-12-08T06:22:17;15.15;;;8.65;;
45206;SDS011;30950;53.086;21.576;2022-12-08T06:24:45;12.05;;;8.43;;
45206;SDS011;30950;53.086;21.576;2022-12-08T06:27:12;14.90;;;9.38;;
45206;SDS011;30950;53.086;21.576;2022-12-08T06:29:39;11.73;;;8.60;;
45206;SDS011;30950;53.086;21.576;2022-12-08T06:32:06;16.35;;;9.45;;
45206;SDS011;30950;53.086;21.576;2022-12-08T06:34:34;12.65;;;8.98;;
45206;SDS011;30950;53.086;21.576;2022-12-08T06:37:01;14.82;;;8.18;;
45206;SDS011;30950;53.086;21.576;2022-12-08T06:39:28;13.10;;;8.63;;
45206;SDS011;30950;53.086;21.576;2022-12-08T06:41:55;12.15;;;8.98;;
45206;SDS011;30950;53.086;21.576;2022-12-08T06:44:41;14.15;;;8.70;;
45206;SDS011;30950;53.086;21.576;2022-12-08T06:47:08;14.88;;;9.82;;
45206;SDS011;30950;53.086;21.576;2022-12-08T06:49:36;15.27;;;10.98;;
45206;SDS011;30950;53.086;21.576;2022-12-08T06:52:03;13.70;;;10.68;;
45206;SDS011;30950;53.086;21.576;2022-12-08T06:54:31;15.73;;;10.40;;
45206;SDS011;30950;53.086;21.576;2022-12-08T06:56:58;11.80;;;7.80;;
45206;SDS011;30950;53.086;21.576;2022-12-08T06:59:25;24.10;;;8.85;;
45206;SDS011;30950;53.086;21.576;2022-12-08T07:01:52;12.43;;;8.75;;
45206;SDS011;30950;53.086;21.576;2022-12-08T07:04:20;13.68;;;9.30;;
45206;SDS011;30950;53.086;21.576;2022-12-08T07:06:47;17.83;;;9.32;;
45206;SDS011;30950;53.086;21.576;2022-12-08T07:09:14;14.88;;;9.38;;
45206;SDS011;30950;53.086;21.576;2022-12-08T07:11:42;12.40;;;8.63;;
45206;SDS011;30950;53.086;21.576;2022-12-08T07:14:09;14.40;;;9.05;;
45206;SDS011;30950;53.086;21.576;2022-12-08T07:16:36;14.43;;;9.48;;
45206;SDS011;30950;53.086;21.576;2022-12-08T07:19:05;12.82;;;7.95;;
45206;SDS011;30950;53.086;21.576;2022-12-08T07:21:32;15.38;;;8.75;;
45206;SDS011;30950;53.086;21.576;2022-12-08T07:24:00;12.40;;;9.00;;
45206;SDS011;30950;53.086;21.576;2022-12-08T07:26:28;15.10;;;9.50;;
45206;SDS011;30950;53.086;21.576;2022-12-08T07:28:55;14.52;;;9.57;;
45206;SDS011;30950;53.086;21.576;2022-12-08T07:31:23;12.15;;;7.70;;
45206;SDS011;30950;53.086;21.576;2022-12-08T07:33:51;15.40;;;8.95;;
45206;SDS011;30950;53.086;21.576;2022-12-08T07:36:18;13.10;;;8.70;;
45206;SDS011;30950;53.086;21.576;2022-12-08T07:38:46;11.35;;;8.75;;
45206;SDS011;30950;53.086;21.576;2022-12-08T07:41:17;14.15;;;8.93;;
45206;SDS011;30950;53.086;21.576;2022-12-08T07:43:49;13.02;;;9.63;;
45206;SDS011;30950;53.086;21.576;2022-12-08T07:46:18;15.30;;;9.57;;
45206;SDS011;30950;53.086;21.576;2022-12-08T07:48:48;15.90;;;9.10;;
45206;SDS011;30950;53.086;21.576;2022-12-08T07:51:15;11.48;;;8.13;;
45206;SDS011;30950;53.086;21.576;2022-12-08T07:53:44;11.45;;;8.10;;
45206;SDS011;30950;53.086;21.576;2022-12-08T07:56:19;8.93;;;7.18;;
45206;SDS011;30950;53.086;21.576;2022-12-08T07:58:47;12.60;;;8.88;;
45206;SDS011;30950;53.086;21.576;2022-12-08T08:01:22;15.20;;;9.07;;
45206;SDS011;30950;53.086;21.576;2022-12-08T08:03:52;41.70;;;20.77;;
45206;SDS011;30950;53.086;21.576;2022-12-08T08:06:20;25.88;;;16.65;;
45206;SDS011;30950;53.086;21.576;2022-12-08T08:08:47;19.77;;;13.77;;
45206;SDS011;30950;53.086;21.576;2022-12-08T08:11:15;29.67;;;21.27;;
45206;SDS011;30950;53.086;21.576;2022-12-08T08:13:48;15.73;;;9.73;;
45206;SDS011;30950;53.086;21.576;2022-12-08T08:16:16;19.20;;;12.18;;
45206;SDS011;30950;53.086;21.576;2022-12-08T08:18:48;16.02;;;9.70;;
45206;SDS011;30950;53.086;21.576;2022-12-08T08:21:17;22.58;;;15.15;;
45206;SDS011;30950;53.086;21.576;2022-12-08T08:24:05;23.45;;;16.00;;
45206;SDS011;30950;53.086;21.576;2022-12-08T08:26:32;13.60;;;10.77;;
45206;SDS011;30950;53.086;21.576;2022-12-08T08:29:00;22.73;;;17.17;;
45206;SDS011;30950;53.086;21.576;2022-12-08T08:31:27;13.90;;;9.90;;
45206;SDS011;30950;53.086;21.576;2022-12-08T08:33:55;16.60;;;11.18;;
45206;SDS011;30950;53.086;21.576;2022-12-08T08:36:22;15.63;;;12.00;;
45206;SDS011;30950;53.086;21.576;2022-12-08T08:38:50;16.88;;;11.90;;
45206;SDS011;30950;53.086;21.576;2022-12-08T08:41:18;14.13;;;10.60;;
45206;SDS011;30950;53.086;21.576;2022-12-08T08:43:45;38.83;;;26.67;;
45206;SDS011;30950;53.086;21.576;2022-12-08T08:46:12;14.02;;;9.73;;
45206;SDS011;30950;53.086;21.576;2022-12-08T08:48:40;17.00;;;11.05;;
45206;SDS011;30950;53.086;21.576;2022-12-08T08:51:08;14.43;;;11.27;;
45206;SDS011;30950;53.086;21.576;2022-12-08T08:53:38;20.52;;;14.68;;
45206;SDS011;30950;53.086;21.576;2022-12-08T08:56:09;42.25;;;23.20;;
45206;SDS011;30950;53.086;21.576;2022-12-08T08:58:39;57.78;;;30.90;;
45206;SDS011;30950;53.086;21.576;2022-12-08T09:01:06;19.10;;;12.75;;
45206;SDS011;30950;53.086;21.576;2022-12-08T09:03:33;65.43;;;37.45;;
45206;SDS011;30950;53.086;21.576;2022-12-08T09:06:01;36.40;;;21.67;;
45206;SDS011;30950;53.086;21.576;2022-12-08T09:08:28;37.83;;;22.60;;
45206;SDS011;30950;53.086;21.576;2022-12-08T09:10:56;14.55;;;10.43;;
45206;SDS011;30950;53.086;21.576;2022-12-08T09:13:23;17.70;;;13.80;;
45206;SDS011;30950;53.086;21.576;2022-12-08T09:15:50;12.50;;;10.07;;
45206;SDS011;30950;53.086;21.576;2022-12-08T09:18:19;29.77;;;20.10;;
45206;SDS011;30950;53.086;21.576;2022-12-08T09:20:46;15.50;;;11.30;;
45206;SDS011;30950;53.086;21.576;2022-12-08T09:23:15;19.33;;;12.85;;
45206;SDS011;30950;53.086;21.576;2022-12-08T09:25:43;15.45;;;10.40;;
45206;SDS011;30950;53.086;21.576;2022-12-08T09:28:12;22.27;;;15.60;;
45206;SDS011;30950;53.086;21.576;2022-12-08T09:30:41;37.03;;;23.95;;
45206;SDS011;30950;53.086;21.576;2022-12-08T09:33:08;15.27;;;11.38;;
45206;SDS011;30950;53.086;21.576;2022-12-08T09:35:35;31.33;;;21.75;;
45206;SDS011;30950;53.086;21.576;2022-12-08T09:38:03;50.40;;;34.40;;
45206;SDS011;30950;53.086;21.576;2022-12-08T09:40:32;45.90;;;31.63;;
45206;SDS011;30950;53.086;21.576;2022-12-08T09:45:58;21.48;;;11.90;;
45206;SDS011;30950;53.086;21.576;2022-12-08T09:48:29;12.63;;;8.63;;
45206;SDS011;30950;53.086;21.576;2022-12-08T09:51:00;15.10;;;9.80;;
45206;SDS011;30950;53.086;21.576;2022-12-08T09:56:07;12.98;;;9.18;;
45206;SDS011;30950;53.086;21.576;2022-12-08T10:01:28;11.60;;;9.43;;
45206;SDS011;30950;53.086;21.576;2022-12-08T10:03:59;16.00;;;11.77;;
45206;SDS011;30950;53.086;21.576;2022-12-08T10:06:32;17.02;;;11.82;;
45206;SDS011;30950;53.086;21.576;2022-12-08T10:09:23;15.43;;;10.55;;
45206;SDS011;30950;53.086;21.576;2022-12-08T10:12:03;11.38;;;8.00;;
45206;SDS011;30950;53.086;21.576;2022-12-08T10:17:21;16.52;;;12.25;;
45206;SDS011;30950;53.086;21.576;2022-12-08T10:19:54;10.60;;;7.05;;
45206;SDS011;30950;53.086;21.576;2022-12-08T10:22:27;16.98;;;9.20;;
45206;SDS011;30950;53.086;21.576;2022-12-08T10:25:13;12.88;;;9.35;;
45206;SDS011;30950;53.086;21.576;2022-12-08T10:27:42;15.05;;;9.43;;
45206;SDS011;30950;53.086;21.576;2022-12-08T10:30:13;13.40;;;9.63;;
45206;SDS011;30950;53.086;21.576;2022-12-08T10:32:47;18.33;;;11.90;;
45206;SDS011;30950;53.086;21.576;2022-12-08T10:35:17;15.52;;;10.50;;
45206;SDS011;30950;53.086;21.576;2022-12-08T10:37:59;15.73;;;10.93;;
45206;SDS011;30950;53.086;21.576;2022-12-08T10:40:33;17.00;;;12.07;;
45206;SDS011;30950;53.086;21.576;2022-12-08T10:43:16;20.33;;;12.35;;
45206;SDS011;30950;53.086;21.576;2022-12-08T10:45:55;14.55;;;9.30;;
45206;SDS011;30950;53.086;21.576;2022-12-08T10:48:35;9.43;;;7.03;;
45206;SDS011;30950;53.086;21.576;2022-12-08T10:51:03;12.02;;;8.10;;
45206;SDS011;30950;53.086;21.576;2022-12-08T10:53:31;11.15;;;8.25;;
45206;SDS011;30950;53.086;21.576;2022-12-08T11:03:59;10.82;;;7.50;;
45206;SDS011;30950;53.086;21.576;2022-12-08T11:06:43;13.20;;;9.50;;
45206;SDS011;30950;53.086;21.576;2022-12-08T11:09:23;13.75;;;9.40;;
45206;SDS011;30950;53.086;21.576;2022-12-08T11:11:59;18.20;;;10.32;;
45206;SDS011;30950;53.086;21.576;2022-12-08T11:17:17;13.32;;;9.25;;
45206;SDS011;30950;53.086;21.576;2022-12-08T11:19:55;16.58;;;10.68;;
45206;SDS011;30950;53.086;21.576;2022-12-08T11:22:45;15.30;;;8.45;;
45206;SDS011;30950;53.086;21.576;2022-12-08T11:25:23;14.25;;;8.45;;
45206;SDS011;30950;53.086;21.576;2022-12-08T11:27:57;18.73;;;11.32;;
45206;SDS011;30950;53.086;21.576;2022-12-08T11:30:27;14.35;;;10.57;;
45206;SDS011;30950;53.086;21.576;2022-12-08T11:33:21;18.85;;;10.95;;
45206;SDS011;30950;53.086;21.576;2022-12-08T11:36:08;14.18;;;8.98;;
45206;SDS011;30950;53.086;21.576;2022-12-08T11:38:43;9.55;;;7.00;;
45206;SDS011;30950;53.086;21.576;2022-12-08T11:41:23;15.30;;;8.40;;
45206;SDS011;30950;53.086;21.576;2022-12-08T11:44:08;12.68;;;8.23;;
45206;SDS011;30950;53.086;21.576;2022-12-08T11:47:06;13.80;;;9.30;;
45206;SDS011;30950;53.086;21.576;2022-12-08T11:49:42;12.18;;;7.88;;
45206;SDS011;30950;53.086;21.576;2022-12-08T11:54:41;10.48;;;7.43;;
45206;SDS011;30950;53.086;21.576;2022-12-08T11:57:13;10.23;;;7.10;;
45206;SDS011;30950;53.086;21.576;2022-12-08T11:59:50;12.57;;;7.30;;
45206;SDS011;30950;53.086;21.576;2022-12-08T12:02:20;10.45;;;7.55;;
45206;SDS011;30950;53.086;21.576;2022-12-08T12:05:10;12.70;;;7.18;;
45206;SDS011;30950;53.086;21.576;2022-12-08T12:18:22;15.55;;;8.40;;
45206;SDS011;30950;53.086;21.576;2022-12-08T12:21:03;11.20;;;7.65;;
45206;SDS011;30950;53.086;21.576;2022-12-08T12:26:07;10.95;;;6.97;;
45206;SDS011;30950;53.086;21.576;2022-12-08T12:28:43;13.85;;;8.95;;
45206;SDS011;30950;53.086;21.576;2022-12-08T12:31:24;11.70;;;7.35;;
45206;SDS011;30950;53.086;21.576;2022-12-08T12:34:16;11.80;;;6.85;;
45206;SDS011;30950;53.086;21.576;2022-12-08T12:36:51;10.98;;;7.40;;
45206;SDS011;30950;53.086;21.576;2022-12-08T12:45:10;10.63;;;6.65;;
45206;SDS011;30950;53.086;21.576;2022-12-08T12:53:01;13.20;;;7.72;;
45206;SDS011;30950;53.086;21.576;2022-12-08T12:58:20;10.30;;;6.38;;
45206;SDS011;30950;53.086;21.576;2022-12-08T13:00:48;12.32;;;7.15;;
45206;SDS011;30950;53.086;21.576;2022-12-08T13:03:15;10.05;;;7.15;;
45206;SDS011;30950;53.086;21.576;2022-12-08T13:05:48;10.05;;;6.90;;
45206;SDS011;30950;53.086;21.576;2022-12-08T13:08:19;12.98;;;7.35;;
45206;SDS011;30950;53.086;21.576;2022-12-08T13:10:58;11.82;;;7.35;;
45206;SDS011;30950;53.086;21.576;2022-12-08T13:13:32;15.50;;;8.82;;
45206;SDS011;30950;53.086;21.576;2022-12-08T13:16:11;14.20;;;7.95;;
45206;SDS011;30950;53.086;21.576;2022-12-08T13:18:46;13.50;;;9.00;;
45206;SDS011;30950;53.086;21.576;2022-12-08T13:21:17;16.58;;;10.05;;
45206;SDS011;30950;53.086;21.576;2022-12-08T13:23:49;17.98;;;10.48;;
45206;SDS011;30950;53.086;21.576;2022-12-08T13:29:35;14.05;;;9.55;;
45206;SDS011;30950;53.086;21.576;2022-12-08T13:34:55;16.15;;;11.25;;
45206;SDS011;30950;53.086;21.576;2022-12-08T13:37:34;18.08;;;9.75;;
45206;SDS011;30950;53.086;21.576;2022-12-08T13:40:24;16.40;;;10.55;;
45206;SDS011;30950;53.086;21.576;2022-12-08T13:45:35;16.92;;;10.23;;
45206;SDS011;30950;53.086;21.576;2022-12-08T13:51:22;25.98;;;13.18;;
45206;SDS011;30950;53.086;21.576;2022-12-08T13:57:23;16.95;;;10.48;;
45206;SDS011;30950;53.086;21.576;2022-12-08T14:00:01;19.50;;;11.90;;
45206;SDS011;30950;53.086;21.576;2022-12-08T14:02:44;21.63;;;10.98;;
45206;SDS011;30950;53.086;21.576;2022-12-08T14:05:19;22.00;;;11.27;;
45206;SDS011;30950;53.086;21.576;2022-12-08T14:08:12;19.15;;;11.63;;
45206;SDS011;30950;53.086;21.576;2022-12-08T14:11:06;21.05;;;12.40;;
45206;SDS011;30950;53.086;21.576;2022-12-08T14:13:36;23.55;;;12.57;;
45206;SDS011;30950;53.086;21.576;2022-12-08T14:16:03;25.38;;;12.93;;
45206;SDS011;30950;53.086;21.576;2022-12-08T14:18:31;25.40;;;12.88;;
45206;SDS011;30950;53.086;21.576;2022-12-08T14:21:00;30.58;;;16.00;;
45206;SDS011;30950;53.086;21.576;2022-12-08T14:23:49;24.95;;;14.15;;
45206;SDS011;30950;53.086;21.576;2022-12-08T14:26:16;24.05;;;14.75;;
45206;SDS011;30950;53.086;21.576;2022-12-08T14:28:44;28.95;;;14.18;;
45206;SDS011;30950;53.086;21.576;2022-12-08T14:31:11;22.92;;;14.07;;
45206;SDS011;30950;53.086;21.576;2022-12-08T14:33:40;25.17;;;15.18;;
45206;SDS011;30950;53.086;21.576;2022-12-08T14:36:08;28.83;;;16.70;;
45206;SDS011;30950;53.086;21.576;2022-12-08T14:38:38;23.55;;;14.95;;
45206;SDS011;30950;53.086;21.576;2022-12-08T14:41:07;23.30;;;14.02;;
45206;SDS011;30950;53.086;21.576;2022-12-08T14:43:36;24.38;;;14.13;;
45206;SDS011;30950;53.086;21.576;2022-12-08T14:48:54;24.90;;;13.85;;
45206;SDS011;30950;53.086;21.576;2022-12-08T14:51:30;23.63;;;14.85;;
45206;SDS011;30950;53.086;21.576;2022-12-08T14:54:08;25.85;;;14.63;;
45206;SDS011;30950;53.086;21.576;2022-12-08T14:56:49;26.38;;;15.13;;
45206;SDS011;30950;53.086;21.576;2022-12-08T14:59:20;27.08;;;16.48;;
45206;SDS011;30950;53.086;21.576;2022-12-08T15:04:45;26.25;;;16.02;;
45206;SDS011;30950;53.086;21.576;2022-12-08T15:07:16;33.20;;;16.33;;
45206;SDS011;30950;53.086;21.576;2022-12-08T15:10:06;21.10;;;14.23;;
45206;SDS011;30950;53.086;21.576;2022-12-08T15:12:35;27.02;;;15.02;;
45206;SDS011;30950;53.086;21.576;2022-12-08T15:17:34;26.38;;;15.95;;
45206;SDS011;30950;53.086;21.576;2022-12-08T15:23:04;27.38;;;15.85;;
45206;SDS011;30950;53.086;21.576;2022-12-08T15:25:39;25.00;;;15.68;;
45206;SDS011;30950;53.086;21.576;2022-12-08T15:28:07;27.83;;;17.55;;
45206;SDS011;30950;53.086;21.576;2022-12-08T15:30:38;29.85;;;17.83;;
45206;SDS011;30950;53.086;21.576;2022-12-08T15:33:05;27.20;;;16.92;;
45206;SDS011;30950;53.086;21.576;2022-12-08T15:35:33;28.58;;;18.15;;
45206;SDS011;30950;53.086;21.576;2022-12-08T15:38:08;28.60;;;19.58;;
45206;SDS011;30950;53.086;21.576;2022-12-08T15:40:44;31.65;;;19.05;;
45206;SDS011;30950;53.086;21.576;2022-12-08T15:43:12;29.80;;;19.23;;
45206;SDS011;30950;53.086;21.576;2022-12-08T15:45:40;27.23;;;18.83;;
45206;SDS011;30950;53.086;21.576;2022-12-08T15:48:24;31.48;;;20.88;;
45206;SDS011;30950;53.086;21.576;2022-12-08T15:50:55;29.60;;;20.25;;
45206;SDS011;30950;53.086;21.576;2022-12-08T15:53:23;32.55;;;22.20;;
45206;SDS011;30950;53.086;21.576;2022-12-08T15:55:51;31.80;;;21.48;;
45206;SDS011;30950;53.086;21.576;2022-12-08T15:58:38;31.45;;;20.25;;
45206;SDS011;30950;53.086;21.576;2022-12-08T16:01:23;33.78;;;21.00;;
45206;SDS011;30950;53.086;21.576;2022-12-08T16:03:51;32.03;;;20.92;;
45206;SDS011;30950;53.086;21.576;2022-12-08T16:06:41;34.63;;;22.58;;
45206;SDS011;30950;53.086;21.576;2022-12-08T16:09:31;29.30;;;20.63;;
45206;SDS011;30950;53.086;21.576;2022-12-08T16:12:05;35.88;;;22.90;;
45206;SDS011;30950;53.086;21.576;2022-12-08T16:15:16;32.53;;;20.77;;
45206;SDS011;30950;53.086;21.576;2022-12-08T16:18:04;32.78;;;22.30;;
45206;SDS011;30950;53.086;21.576;2022-12-08T16:20:32;36.42;;;21.50;;
45206;SDS011;30950;53.086;21.576;2022-12-08T16:23:20;34.20;;;22.25;;
45206;SDS011;30950;53.086;21.576;2022-12-08T16:26:09;40.03;;;22.88;;
45206;SDS011;30950;53.086;21.576;2022-12-08T16:28:59;31.65;;;21.00;;
45206;SDS011;30950;53.086;21.576;2022-12-08T16:31:27;34.20;;;22.30;;
45206;SDS011;30950;53.086;21.576;2022-12-08T16:33:55;39.22;;;21.60;;
45206;SDS011;30950;53.086;21.576;2022-12-08T16:36:22;36.78;;;22.92;;